Walcott, North Dakota
Current Conditions -  °F | °C
As of 12:32 PM on Saturday 20 Dec 2014 (Local Time) from KJKJ Reporting Station
Haze Haze  
Wind Chill: 20°   Ceiling: 800
Heat Index: 30°   Visibility: 4mi
Dew Point: 30°   Wind: 13mph
Humidity: 100%   Direction: 180°S
Pressure: 30.01"   Gusts: NA
Location:  46.55°N, 96.94°W
Report Text: KJKJ 201832Z AUTO 18011KT 4SM BR OVC008 M01/M01 A3001 RMK AO2
Loading
Personal Weather Stations






























Interactive Weather Map New forecast layout! Learn more

10-Day Weather Forecast

Advertisements
Track Severe Weather on mobile